DIWOW EDDK-EDLP
Flight info
| Callsign | DIWOW |
|---|---|
| Flight time | 0h 19m |
| Altitude | 16000 |
| Route | PODIP1R PODIP DCT KOPAG/N0323F150 DCT KULIX DCT EXOBA EXOBA3H |
| Aircraft | P180/L-SBDFGM3RWXY/LB1 |
Departure
| Time | 2026-05-06 18:26 |
|---|---|
| Airport | Cologne Bonn Airport (EDDK) |
Arrival
| Time | 2026-05-06 18:45 |
|---|---|
| Airport | Paderborn Lippstadt Airport (EDLP) |
| Time | Latitude | Longitude | Altitude | Speed | Heading |
|---|---|---|---|---|---|
| 2026-05-06 17:59 | 50.87222 | 7.12437 | 226 ft | 0 kts | 317° |
| 2026-05-06 18:12 | 50.87220 | 7.12440 | 226 ft | 3 kts | 317° |
| 2026-05-06 18:12 | 50.87200 | 7.12468 | 226 ft | 4 kts | 317° |
| 2026-05-06 18:13 | 50.87187 | 7.12487 | 226 ft | 4 kts | 275° |
| 2026-05-06 18:13 | 50.87195 | 7.12514 | 226 ft | 4 kts | 227° |
| 2026-05-06 18:13 | 50.87200 | 7.12523 | 226 ft | 0 kts | 227° |
| 2026-05-06 18:18 | 50.87199 | 7.12521 | 226 ft | 2 kts | 227° |
| 2026-05-06 18:18 | 50.87178 | 7.12485 | 226 ft | 7 kts | 227° |
| 2026-05-06 18:18 | 50.87145 | 7.12428 | 226 ft | 7 kts | 227° |
| 2026-05-06 18:18 | 50.87138 | 7.12366 | 226 ft | 5 kts | 309° |
| 2026-05-06 18:19 | 50.87156 | 7.12329 | 226 ft | 4 kts | 303° |
| 2026-05-06 18:19 | 50.87159 | 7.12254 | 227 ft | 11 kts | 247° |
| 2026-05-06 18:19 | 50.87146 | 7.12226 | 227 ft | 2 kts | 229° |
| 2026-05-06 18:19 | 50.87137 | 7.12211 | 227 ft | 2 kts | 227° |
| 2026-05-06 18:20 | 50.87115 | 7.12172 | 227 ft | 6 kts | 227° |
| 2026-05-06 18:20 | 50.87073 | 7.12126 | 229 ft | 18 kts | 179° |
| 2026-05-06 18:20 | 50.86973 | 7.12239 | 228 ft | 17 kts | 133° |
| 2026-05-06 18:20 | 50.86891 | 7.12367 | 228 ft | 17 kts | 137° |
| 2026-05-06 18:21 | 50.86795 | 7.12507 | 231 ft | 24 kts | 138° |
| 2026-05-06 18:21 | 50.86676 | 7.12673 | 235 ft | 21 kts | 135° |
| 2026-05-06 18:21 | 50.86568 | 7.12836 | 238 ft | 23 kts | 138° |
| 2026-05-06 18:21 | 50.86444 | 7.13015 | 242 ft | 25 kts | 137° |
| 2026-05-06 18:22 | 50.86307 | 7.13212 | 246 ft | 28 kts | 137° |
| 2026-05-06 18:22 | 50.86156 | 7.13432 | 250 ft | 30 kts | 137° |
| 2026-05-06 18:22 | 50.86000 | 7.13658 | 258 ft | 30 kts | 137° |
| 2026-05-06 18:22 | 50.85899 | 7.13783 | 262 ft | 6 kts | 159° |
| 2026-05-06 18:23 | 50.85908 | 7.13793 | 262 ft | 1 kts | 316° |
| 2026-05-06 18:25 | 50.85958 | 7.13721 | 260 ft | 56 kts | 317° |
| 2026-05-06 18:25 | 50.86584 | 7.12818 | 465 ft | 168 kts | 319° |
| 2026-05-06 18:26 | 50.87564 | 7.11432 | 1568 ft | 200 kts | 322° |
| 2026-05-06 18:26 | 50.88787 | 7.10285 | 2854 ft | 208 kts | 343° |
| 2026-05-06 18:26 | 50.90238 | 7.10264 | 4143 ft | 215 kts | 11° |
| 2026-05-06 18:26 | 50.91573 | 7.11388 | 5429 ft | 225 kts | 37° |
| 2026-05-06 18:27 | 50.92797 | 7.12979 | 6544 ft | 228 kts | 37° |
| 2026-05-06 18:27 | 50.93879 | 7.14902 | 6924 ft | 242 kts | 59° |
| 2026-05-06 18:27 | 50.94585 | 7.17329 | 7482 ft | 243 kts | 64° |
| 2026-05-06 18:27 | 50.95311 | 7.19710 | 7991 ft | 243 kts | 60° |
| 2026-05-06 18:28 | 50.96088 | 7.22089 | 8499 ft | 244 kts | 60° |
| 2026-05-06 18:28 | 50.96859 | 7.24513 | 8796 ft | 246 kts | 61° |
| 2026-05-06 18:28 | 50.97599 | 7.26886 | 9501 ft | 231 kts | 60° |
| 2026-05-06 18:28 | 50.98317 | 7.29145 | 9981 ft | 231 kts | 60° |
| 2026-05-06 18:29 | 50.99049 | 7.31448 | 10354 ft | 235 kts | 60° |
| 2026-05-06 18:29 | 50.99779 | 7.33768 | 10905 ft | 236 kts | 60° |
| 2026-05-06 18:29 | 51.00523 | 7.36112 | 11407 ft | 239 kts | 60° |
| 2026-05-06 18:29 | 51.01268 | 7.38493 | 11895 ft | 242 kts | 61° |
| 2026-05-06 18:30 | 51.01914 | 7.40986 | 12343 ft | 247 kts | 72° |
| 2026-05-06 18:30 | 51.02226 | 7.43693 | 12786 ft | 251 kts | 78° |
| 2026-05-06 18:30 | 51.02552 | 7.46433 | 13161 ft | 256 kts | 77° |
| 2026-05-06 18:30 | 51.02897 | 7.49258 | 13349 ft | 266 kts | 78° |
| 2026-05-06 18:31 | 51.03228 | 7.52208 | 13480 ft | 275 kts | 78° |
| 2026-05-06 18:31 | 51.03569 | 7.55231 | 13612 ft | 280 kts | 78° |
| 2026-05-06 18:31 | 51.03923 | 7.58305 | 13737 ft | 284 kts | 78° |
| 2026-05-06 18:31 | 51.04284 | 7.61424 | 13845 ft | 290 kts | 80° |
| 2026-05-06 18:32 | 51.04712 | 7.64594 | 13842 ft | 298 kts | 71° |
| 2026-05-06 18:32 | 51.05419 | 7.66514 | 13845 ft | 301 kts | 49° |
| 2026-05-06 18:32 | 51.06996 | 7.68646 | 13846 ft | 303 kts | 34° |
| 2026-05-06 18:32 | 51.08696 | 7.70656 | 13857 ft | 306 kts | 38° |
| 2026-05-06 18:33 | 51.10246 | 7.72977 | 13857 ft | 307 kts | 45° |
| 2026-05-06 18:33 | 51.11712 | 7.75448 | 13858 ft | 306 kts | 45° |
| 2026-05-06 18:33 | 51.13249 | 7.77777 | 13859 ft | 306 kts | 41° |
| 2026-05-06 18:33 | 51.14828 | 7.80051 | 13859 ft | 305 kts | 42° |
| 2026-05-06 18:34 | 51.16358 | 7.82416 | 13854 ft | 306 kts | 44° |
| 2026-05-06 18:34 | 51.17865 | 7.84804 | 13859 ft | 306 kts | 43° |
| 2026-05-06 18:34 | 51.19413 | 7.87140 | 13860 ft | 306 kts | 42° |
| 2026-05-06 18:34 | 51.20942 | 7.89436 | 13858 ft | 294 kts | 43° |
| 2026-05-06 18:35 | 51.22367 | 7.91656 | 13854 ft | 280 kts | 43° |
| 2026-05-06 18:35 | 51.23722 | 7.93740 | 13841 ft | 269 kts | 43° |
| 2026-05-06 18:35 | 51.25095 | 7.95839 | 13353 ft | 278 kts | 43° |
| 2026-05-06 18:35 | 51.26505 | 7.98003 | 12821 ft | 284 kts | 43° |
| 2026-05-06 18:36 | 51.27938 | 8.00206 | 12300 ft | 288 kts | 43° |
| 2026-05-06 18:36 | 51.29380 | 8.02435 | 11789 ft | 290 kts | 43° |
| 2026-05-06 18:36 | 51.30832 | 8.04675 | 11258 ft | 290 kts | 43° |
| 2026-05-06 18:36 | 51.32273 | 8.06914 | 10638 ft | 284 kts | 43° |
| 2026-05-06 18:37 | 51.33657 | 8.09106 | 10031 ft | 277 kts | 43° |
| 2026-05-06 18:37 | 51.35045 | 8.11217 | 9403 ft | 272 kts | 42° |
| 2026-05-06 18:37 | 51.36397 | 8.13294 | 8745 ft | 267 kts | 43° |
| 2026-05-06 18:37 | 51.37723 | 8.15358 | 8103 ft | 264 kts | 43° |
| 2026-05-06 18:38 | 51.39044 | 8.17404 | 7463 ft | 265 kts | 44° |
| 2026-05-06 18:38 | 51.40355 | 8.19444 | 7042 ft | 258 kts | 44° |
| 2026-05-06 18:38 | 51.41609 | 8.21390 | 6715 ft | 250 kts | 43° |
| 2026-05-06 18:38 | 51.42844 | 8.23304 | 6388 ft | 244 kts | 44° |
| 2026-05-06 18:39 | 51.44047 | 8.25176 | 6061 ft | 239 kts | 43° |
| 2026-05-06 18:39 | 51.45235 | 8.27028 | 5736 ft | 235 kts | 43° |
| 2026-05-06 18:39 | 51.46396 | 8.28835 | 5421 ft | 230 kts | 43° |
| 2026-05-06 18:40 | 51.48642 | 8.32338 | 5018 ft | 215 kts | 43° |
| 2026-05-06 18:40 | 51.49686 | 8.33953 | 4963 ft | 204 kts | 41° |
| 2026-05-06 18:40 | 51.50730 | 8.35554 | 4604 ft | 211 kts | 49° |
| 2026-05-06 18:40 | 51.51553 | 8.37529 | 4239 ft | 214 kts | 56° |
| 2026-05-06 18:41 | 51.52370 | 8.39558 | 3842 ft | 217 kts | 54° |
| 2026-05-06 18:41 | 51.53202 | 8.41564 | 3539 ft | 215 kts | 55° |
| 2026-05-06 18:41 | 51.54008 | 8.43565 | 3250 ft | 212 kts | 55° |
| 2026-05-06 18:41 | 51.54822 | 8.45523 | 2961 ft | 209 kts | 54° |
| 2026-05-06 18:42 | 51.55616 | 8.47481 | 2675 ft | 207 kts | 55° |
| 2026-05-06 18:42 | 51.56384 | 8.49338 | 2402 ft | 189 kts | 54° |
| 2026-05-06 18:42 | 51.57027 | 8.50897 | 2163 ft | 140 kts | 54° |
| 2026-05-06 18:42 | 51.57519 | 8.52112 | 1976 ft | 127 kts | 52° |
| 2026-05-06 18:43 | 51.58040 | 8.53273 | 1803 ft | 129 kts | 51° |
| 2026-05-06 18:43 | 51.58528 | 8.54452 | 1589 ft | 127 kts | 53° |
| 2026-05-06 18:43 | 51.59002 | 8.55645 | 1430 ft | 127 kts | 55° |
| 2026-05-06 18:43 | 51.59486 | 8.56851 | 1247 ft | 128 kts | 54° |
| 2026-05-06 18:44 | 51.59960 | 8.58045 | 1071 ft | 127 kts | 54° |
| 2026-05-06 18:44 | 51.60440 | 8.59228 | 921 ft | 120 kts | 56° |
| 2026-05-06 18:44 | 51.60863 | 8.60293 | 733 ft | 107 kts | 54° |
| 2026-05-06 18:44 | 51.61187 | 8.61082 | 705 ft | 52 kts | 56° |
| 2026-05-06 18:45 | 51.61350 | 8.61486 | 705 ft | 43 kts | 57° |
| 2026-05-06 18:45 | 51.61434 | 8.61720 | 698 ft | 13 kts | 84° |
| 2026-05-06 18:45 | 51.61439 | 8.61853 | 704 ft | 14 kts | 88° |
| 2026-05-06 18:45 | 51.61437 | 8.61966 | 706 ft | 8 kts | 112° |
| 2026-05-06 18:46 | 51.61434 | 8.61977 | 706 ft | 0 kts | 120° |
| 2026-05-06 18:46 | 51.61432 | 8.61981 | 707 ft | 0 kts | 122° |
| 2026-05-06 18:46 | 51.61422 | 8.61999 | 705 ft | 4 kts | 142° |
| 2026-05-06 18:47 | 51.61386 | 8.62026 | 714 ft | 11 kts | 173° |
| 2026-05-06 18:47 | 51.61296 | 8.61999 | 717 ft | 13 kts | 192° |
| 2026-05-06 18:47 | 51.61213 | 8.61970 | 725 ft | 12 kts | 193° |
| 2026-05-06 18:47 | 51.61155 | 8.61855 | 725 ft | 14 kts | 237° |
| 2026-05-06 18:48 | 51.61108 | 8.61737 | 725 ft | 9 kts | 236° |
| 2026-05-06 18:48 | 51.61060 | 8.61729 | 725 ft | 9 kts | 148° |
| 2026-05-06 18:48 | 51.61027 | 8.61753 | 725 ft | 3 kts | 190° |
| 2026-05-06 18:48 | 51.61016 | 8.61731 | 725 ft | 2 kts | 238° |
| 2026-05-06 18:49 | 51.61013 | 8.61725 | 725 ft | 0 kts | 238° |